sensor_id;sensor_type;location;lat;lon;timestamp;pressure;altitude;pressure_sealevel;temperature;humidity
73551;BME280;61816;53.582;10.096;2022-10-31T00:03:40;101607.06;;;12.30;100.00
73551;BME280;61816;53.582;10.096;2022-10-31T00:06:06;101618.78;;;12.31;100.00
73551;BME280;61816;53.582;10.096;2022-10-31T00:08:31;101611.56;;;12.21;100.00
73551;BME280;61816;53.582;10.096;2022-10-31T00:10:56;101617.69;;;12.23;100.00
73551;BME280;61816;53.582;10.096;2022-10-31T00:13:22;101614.28;;;12.21;100.00
73551;BME280;61816;53.582;10.096;2022-10-31T00:15:47;101618.28;;;12.17;100.00
73551;BME280;61816;53.582;10.096;2022-10-31T00:18:12;101615.16;;;12.12;100.00
73551;BME280;61816;53.582;10.096;2022-10-31T00:20:38;101626.91;;;12.13;100.00
73551;BME280;61816;53.582;10.096;2022-10-31T00:23:05;101613.16;;;12.14;100.00
73551;BME280;61816;53.582;10.096;2022-10-31T00:25:34;101622.00;;;12.16;100.00
73551;BME280;61816;53.582;10.096;2022-10-31T00:28:01;101619.09;;;12.28;100.00
73551;BME280;61816;53.582;10.096;2022-10-31T00:30:26;101621.50;;;12.31;100.00
73551;BME280;61816;53.582;10.096;2022-10-31T00:32:51;101620.84;;;12.19;100.00
73551;BME280;61816;53.582;10.096;2022-10-31T00:35:17;101623.09;;;12.23;100.00
73551;BME280;61816;53.582;10.096;2022-10-31T00:37:42;101616.66;;;12.25;100.00
73551;BME280;61816;53.582;10.096;2022-10-31T00:40:08;101620.81;;;12.29;100.00
73551;BME280;61816;53.582;10.096;2022-10-31T00:42:34;101628.50;;;12.33;100.00
73551;BME280;61816;53.582;10.096;2022-10-31T00:44:59;101614.28;;;12.21;100.00
73551;BME280;61816;53.582;10.096;2022-10-31T00:47:24;101615.13;;;12.22;100.00
73551;BME280;61816;53.582;10.096;2022-10-31T00:49:50;101623.44;;;12.20;100.00
73551;BME280;61816;53.582;10.096;2022-10-31T00:52:15;101605.72;;;12.16;100.00
73551;BME280;61816;53.582;10.096;2022-10-31T00:54:40;101610.88;;;12.19;100.00
73551;BME280;61816;53.582;10.096;2022-10-31T00:57:05;101606.53;;;12.27;100.00
73551;BME280;61816;53.582;10.096;2022-10-31T00:59:31;101601.38;;;12.23;100.00
73551;BME280;61816;53.582;10.096;2022-10-31T01:01:56;101603.41;;;12.21;100.00
73551;BME280;61816;53.582;10.096;2022-10-31T01:04:21;101623.44;;;12.20;100.00
73551;BME280;61816;53.582;10.096;2022-10-31T01:06:47;101614.63;;;12.09;100.00
73551;BME280;61816;53.582;10.096;2022-10-31T01:09:12;101630.97;;;11.89;100.00
73551;BME280;61816;53.582;10.096;2022-10-31T01:11:37;101625.56;;;11.89;100.00
73551;BME280;61816;53.582;10.096;2022-10-31T01:14:03;101641.81;;;11.80;100.00
73551;BME280;61816;53.582;10.096;2022-10-31T01:16:28;101636.34;;;11.99;100.00
73551;BME280;61816;53.582;10.096;2022-10-31T01:18:55;101639.78;;;12.01;100.00
73551;BME280;61816;53.582;10.096;2022-10-31T01:21:26;101645.50;;;12.08;100.00
73551;BME280;61816;53.582;10.096;2022-10-31T01:23:55;101648.03;;;12.09;100.00
73551;BME280;61816;53.582;10.096;2022-10-31T01:26:23;101644.31;;;12.10;100.00
73551;BME280;61816;53.582;10.096;2022-10-31T01:28:52;101647.38;;;12.25;100.00
73551;BME280;61816;53.582;10.096;2022-10-31T01:31:20;101651.97;;;12.25;100.00
73551;BME280;61816;53.582;10.096;2022-10-31T01:33:46;101651.09;;;12.34;100.00
73551;BME280;61816;53.582;10.096;2022-10-31T01:36:27;101645.06;;;12.40;100.00
73551;BME280;61816;53.582;10.096;2022-10-31T01:38:54;101661.53;;;12.56;100.00
73551;BME280;61816;53.582;10.096;2022-10-31T01:41:23;101661.63;;;12.64;100.00
73551;BME280;61816;53.582;10.096;2022-10-31T01:43:54;101665.75;;;12.68;100.00
73551;BME280;61816;53.582;10.096;2022-10-31T01:46:39;101660.25;;;12.96;100.00
73551;BME280;61816;53.582;10.096;2022-10-31T01:49:09;101659.81;;;13.00;100.00
73551;BME280;61816;53.582;10.096;2022-10-31T01:51:38;101655.38;;;13.17;100.00
73551;BME280;61816;53.582;10.096;2022-10-31T01:54:07;101665.47;;;13.43;100.00
73551;BME280;61816;53.582;10.096;2022-10-31T01:56:35;101669.66;;;13.55;100.00
73551;BME280;61816;53.582;10.096;2022-10-31T01:59:05;101668.91;;;13.45;100.00
73551;BME280;61816;53.582;10.096;2022-10-31T02:01:32;101670.38;;;13.57;100.00
73551;BME280;61816;53.582;10.096;2022-10-31T02:03:57;101673.25;;;13.81;100.00
73551;BME280;61816;53.582;10.096;2022-10-31T02:08:55;101678.25;;;13.68;100.00
73551;BME280;61816;53.582;10.096;2022-10-31T02:11:23;101682.47;;;13.89;100.00
73551;BME280;61816;53.582;10.096;2022-10-31T02:13:49;101680.31;;;13.92;100.00
73551;BME280;61816;53.582;10.096;2022-10-31T02:16:14;101683.66;;;13.86;100.00
73551;BME280;61816;53.582;10.096;2022-10-31T02:18:40;101680.47;;;13.91;100.00
73551;BME280;61816;53.582;10.096;2022-10-31T02:24:05;101686.75;;;14.17;100.00
73551;BME280;61816;53.582;10.096;2022-10-31T02:26:45;101686.75;;;14.17;100.00
73551;BME280;61816;53.582;10.096;2022-10-31T02:32:00;101693.22;;;14.16;100.00
73551;BME280;61816;53.582;10.096;2022-10-31T02:37:47;101693.44;;;13.97;100.00
73551;BME280;61816;53.582;10.096;2022-10-31T02:40:20;101700.63;;;14.06;100.00
73551;BME280;61816;53.582;10.096;2022-10-31T02:43:00;101705.28;;;14.13;100.00
73551;BME280;61816;53.582;10.096;2022-10-31T02:45:30;101704.47;;;14.21;100.00
73551;BME280;61816;53.582;10.096;2022-10-31T02:48:00;101701.06;;;14.19;100.00
73551;BME280;61816;53.582;10.096;2022-10-31T02:50:31;101704.47;;;14.21;100.00
73551;BME280;61816;53.582;10.096;2022-10-31T02:52:58;101706.44;;;14.03;100.00
73551;BME280;61816;53.582;10.096;2022-10-31T02:57:55;101705.34;;;14.22;100.00
73551;BME280;61816;53.582;10.096;2022-10-31T03:00:22;101702.75;;;14.20;100.00
73551;BME280;61816;53.582;10.096;2022-10-31T03:02:56;101697.22;;;14.04;100.00
73551;BME280;61816;53.582;10.096;2022-10-31T03:05:52;101715.47;;;13.85;100.00
73551;BME280;61816;53.582;10.096;2022-10-31T03:08:30;101713.44;;;13.88;100.00
73551;BME280;61816;53.582;10.096;2022-10-31T03:11:01;101716.28;;;14.04;100.00
73551;BME280;61816;53.582;10.096;2022-10-31T03:13:41;101714.09;;;14.07;100.00
73551;BME280;61816;53.582;10.096;2022-10-31T03:16:27;101719.47;;;14.25;100.00
73551;BME280;61816;53.582;10.096;2022-10-31T03:19:08;101711.94;;;14.19;100.00
73551;BME280;61816;53.582;10.096;2022-10-31T03:21:42;101726.94;;;14.15;100.00
73551;BME280;61816;53.582;10.096;2022-10-31T03:24:10;101725.63;;;14.01;100.00
73551;BME280;61816;53.582;10.096;2022-10-31T03:26:38;101720.50;;;13.98;100.00
73551;BME280;61816;53.582;10.096;2022-10-31T03:29:06;101731.00;;;13.93;100.00
73551;BME280;61816;53.582;10.096;2022-10-31T03:31:36;101734.28;;;13.97;100.00
73551;BME280;61816;53.582;10.096;2022-10-31T03:34:03;101734.91;;;13.91;100.00
73551;BME280;61816;53.582;10.096;2022-10-31T03:36:32;101738.66;;;13.90;100.00
73551;BME280;61816;53.582;10.096;2022-10-31T03:39:01;101735.38;;;13.86;100.00
73551;BME280;61816;53.582;10.096;2022-10-31T03:41:28;101739.41;;;14.00;100.00
73551;BME280;61816;53.582;10.096;2022-10-31T03:44:08;101737.06;;;14.05;100.00
73551;BME280;61816;53.582;10.096;2022-10-31T03:46:36;101745.38;;;13.77;100.00
73551;BME280;61816;53.582;10.096;2022-10-31T03:49:01;101745.03;;;13.80;100.00
73551;BME280;61816;53.582;10.096;2022-10-31T03:51:42;101745.03;;;13.80;100.00
73551;BME280;61816;53.582;10.096;2022-10-31T03:54:17;101751.34;;;13.81;100.00
73551;BME280;61816;53.582;10.096;2022-10-31T03:56:57;101753.25;;;13.89;100.00
73551;BME280;61816;53.582;10.096;2022-10-31T03:59:38;101759.03;;;13.85;100.00
73551;BME280;61816;53.582;10.096;2022-10-31T04:02:08;101757.19;;;13.68;100.00
73551;BME280;61816;53.582;10.096;2022-10-31T04:04:36;101760.47;;;13.54;100.00
73551;BME280;61816;53.582;10.096;2022-10-31T04:07:03;101773.81;;;13.29;100.00
73551;BME280;61816;53.582;10.096;2022-10-31T04:09:33;101782.78;;;13.40;100.00
73551;BME280;61816;53.582;10.096;2022-10-31T04:12:01;101774.75;;;13.56;100.00
73551;BME280;61816;53.582;10.096;2022-10-31T04:14:29;101779.06;;;13.58;100.00
73551;BME280;61816;53.582;10.096;2022-10-31T04:16:56;101779.28;;;13.65;100.00
73551;BME280;61816;53.582;10.096;2022-10-31T04:19:21;101782.22;;;13.54;100.00
73551;BME280;61816;53.582;10.096;2022-10-31T04:21:48;101788.63;;;13.45;100.00
73551;BME280;61816;53.582;10.096;2022-10-31T04:24:13;101786.06;;;13.43;100.00
73551;BME280;61816;53.582;10.096;2022-10-31T04:26:39;101785.56;;;13.48;100.00
73551;BME280;61816;53.582;10.096;2022-10-31T04:29:04;101778.38;;;13.56;100.00
73551;BME280;61816;53.582;10.096;2022-10-31T04:31:29;101776.78;;;13.54;100.00
73551;BME280;61816;53.582;10.096;2022-10-31T04:33:55;101780.19;;;13.56;100.00
73551;BME280;61816;53.582;10.096;2022-10-31T04:36:20;101782.69;;;13.67;100.00
73551;BME280;61816;53.582;10.096;2022-10-31T04:38:45;101787.38;;;13.57;100.00
73551;BME280;61816;53.582;10.096;2022-10-31T04:41:11;101790.56;;;13.70;100.00
73551;BME280;61816;53.582;10.096;2022-10-31T04:43:36;101791.31;;;13.63;100.00
73551;BME280;61816;53.582;10.096;2022-10-31T04:46:02;101788.47;;;13.64;100.00
73551;BME280;61816;53.582;10.096;2022-10-31T04:48:28;101792.81;;;13.57;100.00
73551;BME280;61816;53.582;10.096;2022-10-31T04:50:58;101793.44;;;13.51;100.00
73551;BME280;61816;53.582;10.096;2022-10-31T04:53:24;101793.44;;;13.51;100.00
73551;BME280;61816;53.582;10.096;2022-10-31T04:55:49;101793.91;;;13.64;100.00
73551;BME280;61816;53.582;10.096;2022-10-31T04:58:15;101791.25;;;13.72;100.00
73551;BME280;61816;53.582;10.096;2022-10-31T05:00:40;101784.97;;;13.72;100.00
73551;BME280;61816;53.582;10.096;2022-10-31T05:03:05;101788.69;;;13.71;100.00
73551;BME280;61816;53.582;10.096;2022-10-31T05:05:31;101795.75;;;13.81;100.00
73551;BME280;61816;53.582;10.096;2022-10-31T05:07:56;101792.97;;;13.73;100.00
73551;BME280;61816;53.582;10.096;2022-10-31T05:10:24;101799.47;;;13.80;100.00
73551;BME280;61816;53.582;10.096;2022-10-31T05:12:55;101804.25;;;13.78;100.00
73551;BME280;61816;53.582;10.096;2022-10-31T05:15:22;101796.69;;;13.90;100.00
73551;BME280;61816;53.582;10.096;2022-10-31T05:17:48;101790.00;;;13.84;100.00
73551;BME280;61816;53.582;10.096;2022-10-31T05:20:16;101799.03;;;13.67;100.00
73551;BME280;61816;53.582;10.096;2022-10-31T05:22:43;101799.03;;;13.67;100.00
73551;BME280;61816;53.582;10.096;2022-10-31T05:25:09;101808.84;;;13.78;100.00
73551;BME280;61816;53.582;10.096;2022-10-31T05:27:34;101808.44;;;13.73;100.00
73551;BME280;61816;53.582;10.096;2022-10-31T05:30:00;101805.72;;;13.91;100.00
73551;BME280;61816;53.582;10.096;2022-10-31T05:32:25;101817.22;;;13.84;100.00
73551;BME280;61816;53.582;10.096;2022-10-31T05:34:50;101815.34;;;13.67;100.00
73551;BME280;61816;53.582;10.096;2022-10-31T05:37:15;101808.44;;;13.73;100.00
73551;BME280;61816;53.582;10.096;2022-10-31T05:39:41;101815.34;;;13.67;100.00
73551;BME280;61816;53.582;10.096;2022-10-31T05:42:06;101816.75;;;13.71;100.00
73551;BME280;61816;53.582;10.096;2022-10-31T05:44:31;101811.94;;;13.65;100.00
73551;BME280;61816;53.582;10.096;2022-10-31T05:46:57;101802.75;;;13.66;100.00
73551;BME280;61816;53.582;10.096;2022-10-31T05:49:22;101809.06;;;13.67;100.00
73551;BME280;61816;53.582;10.096;2022-10-31T05:51:48;101800.72;;;13.68;100.00
73551;BME280;61816;53.582;10.096;2022-10-31T05:54:13;101799.03;;;13.67;100.00
73551;BME280;61816;53.582;10.096;2022-10-31T05:56:38;101804.19;;;13.70;100.00
73551;BME280;61816;53.582;10.096;2022-10-31T05:59:04;101805.72;;;13.55;100.00
73551;BME280;61816;53.582;10.096;2022-10-31T06:01:29;101799.31;;;13.28;100.00
73551;BME280;61816;53.582;10.096;2022-10-31T06:03:54;101805.22;;;13.42;100.00
73551;BME280;61816;53.582;10.096;2022-10-31T06:06:20;101805.56;;;13.39;100.00
73551;BME280;61816;53.582;10.096;2022-10-31T06:08:45;101811.91;;;13.29;100.00
73551;BME280;61816;53.582;10.096;2022-10-31T06:11:10;101812.69;;;13.40;100.00
73551;BME280;61816;53.582;10.096;2022-10-31T06:13:36;101825.69;;;13.46;100.00
73551;BME280;61816;53.582;10.096;2022-10-31T06:16:01;101814.97;;;13.44;100.00
73551;BME280;61816;53.582;10.096;2022-10-31T06:18:26;101819.72;;;13.60;100.00
73551;BME280;61816;53.582;10.096;2022-10-31T06:20:51;101826.84;;;13.61;100.00
73551;BME280;61816;53.582;10.096;2022-10-31T06:23:17;101825.31;;;13.76;100.00
73551;BME280;61816;53.582;10.096;2022-10-31T06:25:42;101824.38;;;13.50;100.00
73551;BME280;61816;53.582;10.096;2022-10-31T06:28:07;101831.69;;;13.67;100.00
73551;BME280;61816;53.582;10.096;2022-10-31T06:30:33;101832.75;;;13.39;100.00
73551;BME280;61816;53.582;10.096;2022-10-31T06:33:03;101835.28;;;13.50;100.00
73551;BME280;61816;53.582;10.096;2022-10-31T06:35:28;101825.25;;;13.50;100.00
73551;BME280;61816;53.582;10.096;2022-10-31T06:37:54;101834.63;;;13.56;100.00
73551;BME280;61816;53.582;10.096;2022-10-31T06:40:19;101835.41;;;13.66;100.00
73551;BME280;61816;53.582;10.096;2022-10-31T06:42:45;101834.19;;;13.78;100.00
73551;BME280;61816;53.582;10.096;2022-10-31T06:45:10;101827.25;;;14.02;100.00
73551;BME280;61816;53.582;10.096;2022-10-31T06:47:35;101845.84;;;13.89;100.00
73551;BME280;61816;53.582;10.096;2022-10-31T06:50:01;101842.13;;;13.90;100.00
73551;BME280;61816;53.582;10.096;2022-10-31T06:52:26;101841.16;;;13.99;100.00
73551;BME280;61816;53.582;10.096;2022-10-31T06:54:51;101841.50;;;13.96;100.00
73551;BME280;61816;53.582;10.096;2022-10-31T06:57:17;101849.09;;;14.10;100.00
73551;BME280;61816;53.582;10.096;2022-10-31T06:59:42;101859.03;;;14.19;100.00
73551;BME280;61816;53.582;10.096;2022-10-31T07:02:11;101873.69;;;14.18;100.00
73551;BME280;61816;53.582;10.096;2022-10-31T07:04:37;101867.16;;;14.11;100.00
73551;BME280;61816;53.582;10.096;2022-10-31T07:07:02;101881.16;;;14.16;100.00
73551;BME280;61816;53.582;10.096;2022-10-31T07:09:27;101879.75;;;14.12;100.00
73551;BME280;61816;53.582;10.096;2022-10-31T07:11:53;101879.13;;;14.18;100.00
73551;BME280;61816;53.582;10.096;2022-10-31T07:14:18;101876.16;;;14.29;100.00
73551;BME280;61816;53.582;10.096;2022-10-31T07:16:48;101883.31;;;14.30;100.00
73551;BME280;61816;53.582;10.096;2022-10-31T07:19:13;101885.78;;;14.42;100.00
73551;BME280;61816;53.582;10.096;2022-10-31T07:21:38;101892.59;;;14.20;100.00
73551;BME280;61816;53.582;10.096;2022-10-31T07:24:04;101889.41;;;14.24;100.00
73551;BME280;61816;53.582;10.096;2022-10-31T07:26:29;101891.88;;;14.35;100.00
73551;BME280;61816;53.582;10.096;2022-10-31T07:28:55;101891.50;;;14.12;100.00
73551;BME280;61816;53.582;10.096;2022-10-31T07:31:20;101898.41;;;14.43;100.00
73551;BME280;61816;53.582;10.096;2022-10-31T07:33:45;101890.06;;;14.44;100.00
73551;BME280;61816;53.582;10.096;2022-10-31T07:36:11;101890.31;;;14.51;100.00
73551;BME280;61816;53.582;10.096;2022-10-31T07:38:36;101889.22;;;14.44;100.00
73551;BME280;61816;53.582;10.096;2022-10-31T07:41:01;101892.56;;;14.55;100.00
73551;BME280;61816;53.582;10.096;2022-10-31T07:43:27;101892.63;;;14.46;100.00
73551;BME280;61816;53.582;10.096;2022-10-31T07:45:53;101892.88;;;14.52;100.00
73551;BME280;61816;53.582;10.096;2022-10-31T07:48:19;101904.34;;;14.56;100.00
73551;BME280;61816;53.582;10.096;2022-10-31T07:50:45;101898.97;;;14.72;100.00
73551;BME280;61816;53.582;10.096;2022-10-31T07:53:12;101906.03;;;14.57;100.00
73551;BME280;61816;53.582;10.096;2022-10-31T07:55:38;101913.09;;;14.68;100.00
73551;BME280;61816;53.582;10.096;2022-10-31T07:58:06;101905.81;;;14.76;100.00
73551;BME280;61816;53.582;10.096;2022-10-31T08:00:33;101904.50;;;14.54;100.00
73551;BME280;61816;53.582;10.096;2022-10-31T08:03:00;101904.97;;;14.50;100.00
73551;BME280;61816;53.582;10.096;2022-10-31T08:05:26;101902.00;;;14.25;100.00
73551;BME280;61816;53.582;10.096;2022-10-31T08:07:52;101903.72;;;14.26;100.00
73551;BME280;61816;53.582;10.096;2022-10-31T08:10:18;101903.00;;;14.24;100.00
73551;BME280;61816;53.582;10.096;2022-10-31T08:12:43;101905.13;;;14.30;100.00
73551;BME280;61816;53.582;10.096;2022-10-31T08:15:09;101904.63;;;14.53;100.00
73551;BME280;61816;53.582;10.096;2022-10-31T08:17:35;101902.94;;;14.78;100.00
73551;BME280;61816;53.582;10.096;2022-10-31T08:20:01;101902.50;;;14.90;100.00
73551;BME280;61816;53.582;10.096;2022-10-31T08:22:26;101905.69;;;14.60;100.00
73551;BME280;61816;53.582;10.096;2022-10-31T08:24:52;101896.84;;;14.58;100.00
73551;BME280;61816;53.582;10.096;2022-10-31T08:27:17;101894.81;;;14.60;100.00
73551;BME280;61816;53.582;10.096;2022-10-31T08:29:42;101897.28;;;14.71;100.00
73551;BME280;61816;53.582;10.096;2022-10-31T08:32:08;101905.91;;;14.66;100.00
73551;BME280;61816;53.582;10.096;2022-10-31T08:34:33;101901.44;;;14.83;100.00
73551;BME280;61816;53.582;10.096;2022-10-31T08:36:58;101910.69;;;14.90;100.00
73551;BME280;61816;53.582;10.096;2022-10-31T08:39:24;101911.47;;;15.09;100.00
73551;BME280;61816;53.582;10.096;2022-10-31T08:41:50;101917.38;;;14.70;100.00
73551;BME280;61816;53.582;10.096;2022-10-31T08:44:15;101920.91;;;14.88;100.00
73551;BME280;61816;53.582;10.096;2022-10-31T08:46:41;101918.00;;;14.64;100.00
73551;BME280;61816;53.582;10.096;2022-10-31T08:49:06;101912.13;;;14.51;100.00
73551;BME280;61816;53.582;10.096;2022-10-31T08:51:31;101921.75;;;14.63;100.00
73551;BME280;61816;53.582;10.096;2022-10-31T08:53:57;101924.72;;;14.52;100.00
73551;BME280;61816;53.582;10.096;2022-10-31T08:56:23;101913.00;;;14.77;100.00
73551;BME280;61816;53.582;10.096;2022-10-31T08:58:48;101911.97;;;14.78;100.00
73551;BME280;61816;53.582;10.096;2022-10-31T09:01:14;101913.31;;;14.74;100.00
73551;BME280;61816;53.582;10.096;2022-10-31T09:03:39;101910.84;;;14.63;100.00
73551;BME280;61816;53.582;10.096;2022-10-31T09:06:05;101913.75;;;14.87;100.00
73551;BME280;61816;53.582;10.096;2022-10-31T09:08:34;101906.78;;;14.93;100.00
73551;BME280;61816;53.582;10.096;2022-10-31T09:10:59;101913.53;;;15.07;100.00
73551;BME280;61816;53.582;10.096;2022-10-31T09:13:25;101911.06;;;14.96;100.00
73551;BME280;61816;53.582;10.096;2022-10-31T09:15:51;101909.34;;;14.95;100.00
73551;BME280;61816;53.582;10.096;2022-10-31T09:18:19;101914.16;;;15.01;100.00
73551;BME280;61816;53.582;10.096;2022-10-31T09:20:46;101915.53;;;15.05;100.00
73551;BME280;61816;53.582;10.096;2022-10-31T09:23:14;101903.97;;;15.11;100.00
73551;BME280;61816;53.582;10.096;2022-10-31T09:25:39;101894.00;;;15.28;100.00
73551;BME280;61816;53.582;10.096;2022-10-31T09:28:06;101891.75;;;15.23;100.00
73551;BME280;61816;53.582;10.096;2022-10-31T09:30:34;101899.00;;;15.40;100.00
73551;BME280;61816;53.582;10.096;2022-10-31T09:33:03;101897.63;;;15.44;100.00
73551;BME280;61816;53.582;10.096;2022-10-31T09:35:28;101892.34;;;15.43;100.00
73551;BME280;61816;53.582;10.096;2022-10-31T09:37:58;101893.47;;;15.24;100.00
73551;BME280;61816;53.582;10.096;2022-10-31T09:40:29;101898.63;;;15.35;100.00
73551;BME280;61816;53.582;10.096;2022-10-31T09:46:15;101894.34;;;15.67;100.00
73551;BME280;61816;53.582;10.096;2022-10-31T09:49:30;101896.66;;;15.54;100.00
73551;BME280;61816;53.582;10.096;2022-10-31T09:52:28;101908.34;;;15.72;100.00
73551;BME280;61816;53.582;10.096;2022-10-31T09:55:04;101915.53;;;15.89;99.57
73551;BME280;61816;53.582;10.096;2022-10-31T09:57:35;101919.34;;;15.54;99.33
73551;BME280;61816;53.582;10.096;2022-10-31T10:00:04;101924.44;;;15.07;100.00
73551;BME280;61816;53.582;10.096;2022-10-31T10:02:35;101926.84;;;15.18;100.00
73551;BME280;61816;53.582;10.096;2022-10-31T10:05:08;101922.84;;;15.38;100.00
73551;BME280;61816;53.582;10.096;2022-10-31T10:07:46;101929.00;;;15.32;99.85
73551;BME280;61816;53.582;10.096;2022-10-31T10:10:37;101929.66;;;15.26;100.00
73551;BME280;61816;53.582;10.096;2022-10-31T10:16:24;101922.41;;;15.51;100.00
73551;BME280;61816;53.582;10.096;2022-10-31T10:18:32;101923.72;;;15.81;99.22
73551;BME280;61816;53.582;10.096;2022-10-31T10:21:19;101922.72;;;15.90;97.36
73551;BME280;61816;53.582;10.096;2022-10-31T10:26:23;101921.16;;;15.37;99.68
73551;BME280;61816;53.582;10.096;2022-10-31T10:31:52;101928.25;;;15.22;100.00
73551;BME280;61816;53.582;10.096;2022-10-31T10:34:37;101922.19;;;15.44;98.73
73551;BME280;61816;53.582;10.096;2022-10-31T10:37:30;101918.88;;;15.59;99.05
73551;BME280;61816;53.582;10.096;2022-10-31T10:40:07;101915.53;;;15.81;96.92
73551;BME280;61816;53.582;10.096;2022-10-31T10:42:36;101913.19;;;15.94;96.00
73551;BME280;61816;53.582;10.096;2022-10-31T10:45:20;101900.88;;;15.90;95.95
73551;BME280;61816;53.582;10.096;2022-10-31T10:51:01;101900.06;;;16.31;94.95
73551;BME280;61816;53.582;10.096;2022-10-31T10:53:52;101894.91;;;16.36;94.04
73551;BME280;61816;53.582;10.096;2022-10-31T10:59:30;101888.97;;;16.32;92.62
73551;BME280;61816;53.582;10.096;2022-10-31T11:01:56;101888.91;;;15.83;94.65
73551;BME280;61816;53.582;10.096;2022-10-31T11:04:33;101899.88;;;16.16;92.71
73551;BME280;61816;53.582;10.096;2022-10-31T11:07:07;101889.63;;;16.75;90.43
73551;BME280;61816;53.582;10.096;2022-10-31T11:09:34;101897.81;;;16.83;89.61
73551;BME280;61816;53.582;10.096;2022-10-31T11:12:07;101897.81;;;16.67;90.37
73551;BME280;61816;53.582;10.096;2022-10-31T11:14:41;101888.94;;;16.65;90.38
73551;BME280;61816;53.582;10.096;2022-10-31T11:17:30;101886.91;;;16.50;90.56
73551;BME280;61816;53.582;10.096;2022-10-31T11:20:01;101880.06;;;16.06;91.47
73551;BME280;61816;53.582;10.096;2022-10-31T11:22:27;101881.13;;;15.54;94.00
73551;BME280;61816;53.582;10.096;2022-10-31T11:24:52;101883.38;;;15.59;94.13
73551;BME280;61816;53.582;10.096;2022-10-31T11:27:22;101879.91;;;15.40;95.57
73551;BME280;61816;53.582;10.096;2022-10-31T11:29:49;101872.16;;;15.70;93.77
73551;BME280;61816;53.582;10.096;2022-10-31T11:32:20;101870.81;;;15.90;92.58
73551;BME280;61816;53.582;10.096;2022-10-31T11:34:49;101872.91;;;16.13;92.02
73551;BME280;61816;53.582;10.096;2022-10-31T11:37:27;101870.66;;;16.08;92.12
73551;BME280;61816;53.582;10.096;2022-10-31T11:39:59;101866.38;;;15.89;92.71
73551;BME280;61816;53.582;10.096;2022-10-31T11:42:30;101858.19;;;15.65;93.67
73551;BME280;61816;53.582;10.096;2022-10-31T11:45:02;101871.47;;;15.76;93.57
73551;BME280;61816;53.582;10.096;2022-10-31T11:47:31;101876.28;;;15.82;93.43
73551;BME280;61816;53.582;10.096;2022-10-31T11:50:09;101870.50;;;15.85;93.83
73551;BME280;61816;53.582;10.096;2022-10-31T11:52:38;101870.81;;;15.90;93.47
73551;BME280;61816;53.582;10.096;2022-10-31T11:55:36;101872.19;;;16.02;93.05
73551;BME280;61816;53.582;10.096;2022-10-31T11:58:03;101869.16;;;15.97;94.27
73551;BME280;61816;53.582;10.096;2022-10-31T12:00:32;101867.78;;;16.26;92.92
73551;BME280;61816;53.582;10.096;2022-10-31T12:03:12;101865.03;;;16.34;93.16
73551;BME280;61816;53.582;10.096;2022-10-31T12:05:40;101858.84;;;16.73;92.09
73551;BME280;61816;53.582;10.096;2022-10-31T12:08:12;101854.75;;;16.61;91.16
73551;BME280;61816;53.582;10.096;2022-10-31T12:15:46;101846.84;;;16.82;88.84
73551;BME280;61816;53.582;10.096;2022-10-31T12:18:25;101849.63;;;16.74;89.39
73551;BME280;61816;53.582;10.096;2022-10-31T12:23:29;101856.78;;;16.75;88.66
73551;BME280;61816;53.582;10.096;2022-10-31T12:26:18;101850.00;;;16.71;89.10
73551;BME280;61816;53.582;10.096;2022-10-31T12:31:59;101848.75;;;16.65;89.13
73551;BME280;61816;53.582;10.096;2022-10-31T12:34:50;101839.03;;;16.54;90.65
73551;BME280;61816;53.582;10.096;2022-10-31T12:53:55;101846.41;;;15.97;91.70
73551;BME280;61816;53.582;10.096;2022-10-31T12:56:33;101849.31;;;15.79;92.72
73551;BME280;61816;53.582;10.096;2022-10-31T13:02:00;101830.50;;;15.09;96.55
73551;BME280;61816;53.582;10.096;2022-10-31T13:07:17;101828.16;;;15.81;93.25
73551;BME280;61816;53.582;10.096;2022-10-31T13:12:29;101813.13;;;16.26;89.73
73551;BME280;61816;53.582;10.096;2022-10-31T13:14:59;101823.00;;;16.35;88.73
73551;BME280;61816;53.582;10.096;2022-10-31T13:17:32;101812.44;;;16.16;89.41
73551;BME280;61816;53.582;10.096;2022-10-31T13:22:44;101818.56;;;15.69;91.11
73551;BME280;61816;53.582;10.096;2022-10-31T13:25:17;101817.16;;;15.57;91.92
73551;BME280;61816;53.582;10.096;2022-10-31T13:27:56;101817.13;;;15.32;93.59
73551;BME280;61816;53.582;10.096;2022-10-31T13:30:24;101811.66;;;15.40;93.35
73551;BME280;61816;53.582;10.096;2022-10-31T13:33:03;101807.84;;;15.25;93.69
73551;BME280;61816;53.582;10.096;2022-10-31T13:35:39;101808.53;;;15.19;94.88
73551;BME280;61816;53.582;10.096;2022-10-31T13:41:11;101802.69;;;16.29;90.21
73551;BME280;61816;53.582;10.096;2022-10-31T13:43:58;101801.81;;;16.45;90.16
73551;BME280;61816;53.582;10.096;2022-10-31T13:46:34;101796.63;;;16.75;88.14
73551;BME280;61816;53.582;10.096;2022-10-31T13:49:00;101791.28;;;16.81;87.57
73551;BME280;61816;53.582;10.096;2022-10-31T13:51:33;101772.75;;;17.31;85.86
73551;BME280;61816;53.582;10.096;2022-10-31T13:54:20;101761.50;;;17.26;85.67
73551;BME280;61816;53.582;10.096;2022-10-31T13:56:51;101763.78;;;17.14;85.84
73551;BME280;61816;53.582;10.096;2022-10-31T13:59:19;101763.38;;;16.94;86.14